createdAt,value
2023-03-13T00:01:38.938Z,100318.50
2023-03-13T00:04:06.112Z,100319.28
2023-03-13T00:06:35.620Z,100324.44
2023-03-13T00:09:03.924Z,100321.06
2023-03-13T00:11:30.541Z,100317.66
2023-03-13T00:14:02.235Z,100315.59
2023-03-13T00:16:29.225Z,100310.56
2023-03-13T00:18:57.109Z,100309.53
2023-03-13T00:21:26.152Z,100312.03
2023-03-13T00:23:52.893Z,100310.94
2023-03-13T00:26:22.191Z,100311.34
2023-03-13T00:28:49.249Z,100292.75
2023-03-13T00:31:21.703Z,100298.72
2023-03-13T00:33:52.258Z,100301.53
2023-03-13T00:36:21.279Z,100293.06
2023-03-13T00:38:48.482Z,100300.16
2023-03-13T00:41:19.987Z,100299.19
2023-03-13T00:43:48.131Z,100294.97
2023-03-13T00:46:16.473Z,100289.56
2023-03-13T00:48:43.103Z,100285.91
2023-03-13T00:51:11.060Z,100284.22
2023-03-13T00:53:37.700Z,100269.88
2023-03-13T00:56:09.714Z,100271.72
2023-03-13T00:58:38.413Z,100272.50
2023-03-13T01:01:09.926Z,100264.72
2023-03-13T01:03:37.710Z,100260.56
2023-03-13T01:06:06.151Z,100258.47
2023-03-13T01:08:32.869Z,100254.09
2023-03-13T01:11:01.418Z,100248.78
2023-03-13T01:13:30.020Z,100247.22
2023-03-13T01:15:57.499Z,100259.59
2023-03-13T01:18:24.169Z,100262.16
2023-03-13T01:20:50.700Z,100259.66
2023-03-13T01:23:18.330Z,100262.13
2023-03-13T01:25:44.927Z,100260.09
2023-03-13T01:28:11.512Z,100254.75
2023-03-13T01:30:38.116Z,100256.38
2023-03-13T01:33:04.679Z,100258.34
2023-03-13T01:35:31.537Z,100255.53
2023-03-13T01:37:59.028Z,100255.84
2023-03-13T01:40:25.753Z,100255.81
2023-03-13T01:42:59.595Z,100252.66
2023-03-13T01:45:53.689Z,100244.56
2023-03-13T01:48:23.905Z,100241.91
2023-03-13T01:50:50.635Z,100241.53
2023-03-13T01:53:24.404Z,100228.50
2023-03-13T01:55:52.402Z,100230.81
2023-03-13T01:58:19.160Z,100217.63
2023-03-13T02:00:46.556Z,100206.00
2023-03-13T02:03:18.093Z,100207.97
2023-03-13T02:05:46.493Z,100194.47
2023-03-13T02:08:23.291Z,100211.75
2023-03-13T02:11:04.659Z,100210.06
2023-03-13T02:13:31.226Z,100201.00
2023-03-13T02:15:57.907Z,100202.66
2023-03-13T02:18:26.086Z,100197.13
2023-03-13T02:20:58.457Z,100191.00
2023-03-13T02:23:30.032Z,100197.13
2023-03-13T02:25:56.747Z,100186.09
2023-03-13T02:28:39.188Z,100180.59
2023-03-13T02:31:09.854Z,100179.22
2023-03-13T02:33:40.419Z,100173.91
2023-03-13T02:36:07.849Z,100173.16
2023-03-13T02:38:39.850Z,100172.22
2023-03-13T02:41:06.745Z,100167.66
2023-03-13T02:43:35.218Z,100168.53
2023-03-13T02:46:14.972Z,100161.13
2023-03-13T02:48:46.946Z,100154.00
2023-03-13T02:51:27.149Z,100154.06
2023-03-13T02:53:56.630Z,100151.31
2023-03-13T02:56:25.950Z,100145.06
2023-03-13T02:58:53.649Z,100134.94
2023-03-13T03:01:23.691Z,100128.97
2023-03-13T03:03:51.225Z,100126.59
2023-03-13T03:06:17.832Z,100122.28
2023-03-13T03:08:45.575Z,100120.09
2023-03-13T03:11:13.070Z,100115.38
2023-03-13T03:13:41.099Z,100112.81
2023-03-13T03:16:09.705Z,100109.25
2023-03-13T03:18:37.926Z,100112.03
2023-03-13T03:21:06.343Z,100109.50
2023-03-13T03:23:37.627Z,100105.44
2023-03-13T03:26:05.489Z,100108.91
2023-03-13T03:28:32.632Z,100105.63
2023-03-13T03:31:05.648Z,100100.91
2023-03-13T03:33:32.260Z,100103.44
2023-03-13T03:36:03.745Z,100098.84
2023-03-13T03:38:30.364Z,100092.97
2023-03-13T03:40:57.087Z,100088.59
2023-03-13T03:43:24.178Z,100077.81
2023-03-13T03:45:51.105Z,100082.56
2023-03-13T03:48:17.888Z,100069.41
2023-03-13T03:50:44.542Z,100071.47
2023-03-13T03:53:12.550Z,100067.88
2023-03-13T03:55:40.157Z,100051.72
2023-03-13T03:58:06.775Z,100064.13
2023-03-13T04:00:53.421Z,100054.22
2023-03-13T04:03:20.069Z,100052.59
2023-03-13T04:05:46.671Z,100046.84
2023-03-13T04:08:13.586Z,100045.72
2023-03-13T04:10:40.452Z,100043.59
2023-03-13T04:13:07.353Z,100040.63
2023-03-13T04:15:34.069Z,100032.97
2023-03-13T04:18:01.171Z,100028.19
2023-03-13T04:20:28.921Z,100030.13
2023-03-13T04:22:55.528Z,100016.94
2023-03-13T04:25:22.166Z,100021.31
2023-03-13T04:27:50.960Z,100006.78
2023-03-13T04:30:20.217Z,100006.50
2023-03-13T04:33:05.320Z,99993.56
2023-03-13T04:35:46.476Z,100001.66
2023-03-13T04:38:13.106Z,99995.34
2023-03-13T04:41:05.527Z,99982.41
2023-03-13T04:43:43.353Z,99979.22
2023-03-13T04:46:19.447Z,99990.34
2023-03-13T04:49:03.409Z,99991.09
2023-03-13T04:51:44.910Z,99978.44
2023-03-13T04:54:22.462Z,99973.19
2023-03-13T04:57:05.149Z,99960.53
2023-03-13T04:59:49.744Z,99967.00
2023-03-13T05:02:26.149Z,99955.28
2023-03-13T05:05:05.491Z,99947.25
2023-03-13T05:07:50.693Z,99932.56
2023-03-13T05:10:31.278Z,99933.75
2023-03-13T05:13:09.676Z,99923.47
2023-03-13T05:15:54.856Z,99931.38
2023-03-13T05:18:36.675Z,99921.56
2023-03-13T05:21:14.812Z,99921.31
2023-03-13T05:24:03.166Z,99922.84
2023-03-13T05:26:38.860Z,99913.88
2023-03-13T05:29:26.936Z,99911.50
2023-03-13T05:32:07.902Z,99895.00
2023-03-13T05:34:54.757Z,99887.84
2023-03-13T05:37:41.427Z,99886.41
2023-03-13T05:40:26.601Z,99873.88
2023-03-13T05:43:11.545Z,99862.13
2023-03-13T05:46:01.166Z,99864.19
2023-03-13T05:48:50.804Z,99866.47
2023-03-13T05:51:43.282Z,99852.75
2023-03-13T05:54:22.517Z,99848.44
2023-03-13T05:57:12.270Z,99843.06
2023-03-13T05:59:50.262Z,99848.69
2023-03-13T06:02:39.348Z,99842.03
2023-03-13T06:05:07.899Z,99834.28
2023-03-13T06:07:37.730Z,99841.63
2023-03-13T06:10:05.464Z,99833.16
2023-03-13T06:12:32.104Z,99837.66
2023-03-13T06:14:59.531Z,99825.28
2023-03-13T06:17:42.144Z,99812.78
2023-03-13T06:20:09.416Z,99816.91
2023-03-13T06:22:35.957Z,99808.78
2023-03-13T06:25:02.618Z,99803.59
2023-03-13T06:27:29.169Z,99787.06
2023-03-13T06:29:55.738Z,99777.16
2023-03-13T06:32:22.359Z,99776.13
2023-03-13T06:34:49.006Z,99762.41
2023-03-13T06:37:15.851Z,99764.63
2023-03-13T06:39:42.497Z,99760.09
2023-03-13T06:42:09.177Z,99743.69
2023-03-13T06:44:35.764Z,99730.91
2023-03-13T06:47:02.470Z,99738.63
2023-03-13T06:49:29.056Z,99732.47
2023-03-13T06:51:58.795Z,99730.50
2023-03-13T06:54:25.506Z,99731.41
2023-03-13T06:56:52.120Z,99723.56
2023-03-13T06:59:18.665Z,99716.00
2023-03-13T07:01:46.059Z,99726.03
2023-03-13T07:04:13.080Z,99727.03
2023-03-13T07:06:39.767Z,99740.56
2023-03-13T07:09:06.350Z,99734.72
2023-03-13T07:11:39.021Z,99724.28
2023-03-13T07:14:15.978Z,99716.13
2023-03-13T07:16:49.775Z,99708.91
2023-03-13T07:19:16.672Z,99698.66
2023-03-13T07:21:44.237Z,99702.97
2023-03-13T07:24:10.944Z,99699.41
2023-03-13T07:26:37.826Z,99706.78
2023-03-13T07:29:05.568Z,99695.69
2023-03-13T07:31:34.167Z,99699.72
2023-03-13T07:34:01.023Z,99683.16
2023-03-13T07:36:28.083Z,99697.97
2023-03-13T07:38:54.641Z,99694.63
2023-03-13T07:41:21.379Z,99689.78
2023-03-13T07:43:47.922Z,99678.63
2023-03-13T07:46:18.681Z,99673.88
2023-03-13T07:48:45.970Z,99676.03
2023-03-13T07:51:30.272Z,99667.88
2023-03-13T07:54:03.622Z,99657.25
2023-03-13T07:56:30.167Z,99658.41
2023-03-13T07:58:56.806Z,99657.19
2023-03-13T08:01:27.845Z,99638.94
2023-03-13T08:03:56.242Z,99645.44
2023-03-13T08:06:27.365Z,99645.78
2023-03-13T08:08:57.101Z,99651.09
2023-03-13T08:11:25.369Z,99638.38
2023-03-13T08:13:53.159Z,99631.81
2023-03-13T08:16:38.092Z,99628.69
2023-03-13T08:19:06.025Z,99629.66
2023-03-13T08:21:35.312Z,99617.34
2023-03-13T08:24:06.949Z,99614.91
2023-03-13T08:26:35.640Z,99616.88
2023-03-13T08:29:05.010Z,99612.59
2023-03-13T08:31:34.367Z,99613.22
2023-03-13T08:34:01.201Z,99604.03
2023-03-13T08:36:30.749Z,99600.88
2023-03-13T08:38:59.867Z,99598.72
2023-03-13T08:41:32.260Z,99609.66
2023-03-13T08:43:59.312Z,99589.88
2023-03-13T08:46:26.054Z,99591.03
2023-03-13T08:48:54.507Z,99584.47
2023-03-13T08:51:23.877Z,99589.72
2023-03-13T08:53:50.959Z,99573.03
2023-03-13T08:56:19.546Z,99567.06
2023-03-13T08:58:53.805Z,99569.56
2023-03-13T09:01:22.119Z,99567.84
2023-03-13T09:03:49.445Z,99564.19
2023-03-13T09:06:16.283Z,99560.88
2023-03-13T09:08:43.081Z,99556.97
2023-03-13T09:11:14.520Z,99555.69
2023-03-13T09:13:44.038Z,99555.97
2023-03-13T09:16:13.198Z,99557.31
2023-03-13T09:18:39.953Z,99566.31
2023-03-13T09:21:10.094Z,99561.91
2023-03-13T09:23:36.902Z,99554.41
2023-03-13T09:26:03.760Z,99562.31
2023-03-13T09:28:30.786Z,99565.28
2023-03-13T09:31:07.160Z,99560.66
2023-03-13T09:33:33.888Z,99550.75
2023-03-13T09:36:00.530Z,99554.09
2023-03-13T09:38:27.392Z,99552.91
2023-03-13T09:41:05.585Z,99534.06
2023-03-13T09:43:58.692Z,99533.38
2023-03-13T09:46:31.378Z,99531.88
2023-03-13T09:49:00.593Z,99535.22
2023-03-13T09:51:36.694Z,99526.03
2023-03-13T09:54:09.713Z,99537.78
2023-03-13T09:56:42.468Z,99531.34
2023-03-13T09:59:51.352Z,99531.28
2023-03-13T10:02:22.117Z,99524.41
2023-03-13T10:04:53.335Z,99522.88
2023-03-13T10:07:21.393Z,99534.88
2023-03-13T10:09:48.003Z,99524.78
2023-03-13T10:12:21.427Z,99534.53
2023-03-13T10:15:03.471Z,99520.31
2023-03-13T10:17:33.491Z,99519.28
2023-03-13T10:20:10.807Z,99531.44
2023-03-13T10:22:38.007Z,99521.47
2023-03-13T10:25:20.016Z,99517.19
2023-03-13T10:27:51.175Z,99514.84
2023-03-13T10:30:31.909Z,99514.53
2023-03-13T10:33:19.360Z,99517.44
2023-03-13T10:35:46.285Z,99504.53
2023-03-13T10:38:19.175Z,99506.06
2023-03-13T10:40:57.884Z,99492.41
2023-03-13T10:43:25.620Z,99499.72
2023-03-13T10:45:52.820Z,99491.19
2023-03-13T10:48:25.394Z,99498.50
2023-03-13T10:50:54.680Z,99493.63
2023-03-13T10:53:25.118Z,99479.22
2023-03-13T10:56:16.297Z,99481.72
2023-03-13T10:58:44.890Z,99473.66
2023-03-13T11:01:22.467Z,99471.19
2023-03-13T11:03:50.852Z,99478.78
2023-03-13T11:06:32.488Z,99466.22
2023-03-13T11:09:12.774Z,99462.69
2023-03-13T11:11:51.420Z,99441.63
2023-03-13T11:14:20.403Z,99449.06
2023-03-13T11:16:52.178Z,99460.22
2023-03-13T11:19:25.919Z,99447.91
2023-03-13T11:22:14.964Z,99444.94
2023-03-13T11:24:50.543Z,99444.41
2023-03-13T11:27:41.427Z,99433.97
2023-03-13T11:30:41.466Z,99438.81
2023-03-13T11:33:40.878Z,99435.91
2023-03-13T11:36:33.770Z,99437.75
2023-03-13T11:39:09.396Z,99422.81
2023-03-13T11:41:55.167Z,99421.22
2023-03-13T11:44:39.822Z,99429.88
2023-03-13T11:47:49.050Z,99428.00
2023-03-13T11:50:24.455Z,99434.09
2023-03-13T11:52:59.843Z,99426.59
2023-03-13T11:55:55.068Z,99419.41
2023-03-13T11:58:41.961Z,99423.03
2023-03-13T12:01:12.096Z,99413.72
2023-03-13T12:03:56.495Z,99416.19
2023-03-13T12:06:35.482Z,99421.56
2023-03-13T12:09:12.771Z,99415.72
2023-03-13T12:11:54.722Z,99418.69
2023-03-13T12:14:43.766Z,99407.53
2023-03-13T12:17:15.934Z,99421.66
2023-03-13T12:19:49.530Z,99409.59
2023-03-13T12:22:24.897Z,99406.81
2023-03-13T12:25:15.396Z,99408.47
2023-03-13T12:27:46.767Z,99405.63
2023-03-13T12:30:22.933Z,99406.44
2023-03-13T12:32:56.751Z,99392.19
2023-03-13T12:35:28.983Z,99387.81
2023-03-13T12:38:28.505Z,99384.34
2023-03-13T12:41:24.783Z,99395.63
2023-03-13T12:44:07.852Z,99384.50
2023-03-13T12:46:43.084Z,99378.00
2023-03-13T12:49:33.093Z,99378.19
2023-03-13T12:52:21.442Z,99382.22
2023-03-13T12:55:08.048Z,99375.13
2023-03-13T12:58:10.619Z,99364.22
2023-03-13T13:00:40.245Z,99350.09
2023-03-13T13:03:22.689Z,99351.88
2023-03-13T13:06:00.109Z,99357.50
2023-03-13T13:08:27.348Z,99345.13
2023-03-13T13:10:54.057Z,99335.38
2023-03-13T13:13:31.750Z,99339.84
2023-03-13T13:16:01.854Z,99332.59
2023-03-13T13:18:30.662Z,99328.63
2023-03-13T13:21:03.278Z,99335.56
2023-03-13T13:23:38.950Z,99327.81
2023-03-13T13:26:29.577Z,99323.41
2023-03-13T13:29:22.442Z,99313.31
2023-03-13T13:31:51.721Z,99312.06
2023-03-13T13:34:31.100Z,99315.63
2023-03-13T13:36:58.480Z,99310.38
2023-03-13T13:39:48.270Z,99305.59
2023-03-13T13:42:30.754Z,99310.47
2023-03-13T13:45:01.823Z,99303.84
2023-03-13T13:47:32.383Z,99305.44
2023-03-13T13:50:00.561Z,99312.94
2023-03-13T13:52:38.947Z,99317.13
2023-03-13T13:55:30.425Z,99296.53
2023-03-13T13:58:12.621Z,99311.00
2023-03-13T14:00:45.796Z,99299.03
2023-03-13T14:03:19.401Z,99306.44
2023-03-13T14:05:48.023Z,99314.69
2023-03-13T14:08:21.123Z,99307.16
2023-03-13T14:11:24.153Z,99306.97
2023-03-13T14:14:09.737Z,99300.50
2023-03-13T14:16:37.637Z,99308.63
2023-03-13T14:19:04.574Z,99300.19
2023-03-13T14:21:31.174Z,99278.44
2023-03-13T14:23:58.049Z,99296.72
2023-03-13T14:26:27.588Z,99301.28
2023-03-13T14:28:55.639Z,99287.44
2023-03-13T14:31:28.721Z,99282.22
2023-03-13T14:33:56.894Z,99284.13
2023-03-13T14:36:23.674Z,99281.84
2023-03-13T14:38:57.375Z,99281.50
2023-03-13T14:41:33.467Z,99281.00
2023-03-13T14:44:10.593Z,99280.59
2023-03-13T14:46:40.791Z,99277.13
2023-03-13T14:49:14.200Z,99272.28
2023-03-13T14:51:41.011Z,99271.06
2023-03-13T14:54:26.181Z,99277.00
2023-03-13T14:57:23.616Z,99262.53
2023-03-13T14:59:51.718Z,99259.78
2023-03-13T15:02:27.188Z,99260.78
2023-03-13T15:04:59.731Z,99266.72
2023-03-13T15:07:29.691Z,99264.84
2023-03-13T15:09:57.483Z,99253.75
2023-03-13T15:12:24.332Z,99270.47
2023-03-13T15:14:52.812Z,99244.34
2023-03-13T15:17:23.420Z,99256.97
2023-03-13T15:19:54.936Z,99243.16
2023-03-13T15:22:28.489Z,99242.63
2023-03-13T15:25:05.763Z,99220.97
2023-03-13T15:27:33.818Z,99250.81
2023-03-13T15:30:00.507Z,99229.88
2023-03-13T15:32:36.424Z,99222.38
2023-03-13T15:35:22.544Z,99216.22
2023-03-13T15:37:49.125Z,99210.03
2023-03-13T15:40:17.190Z,99212.59
2023-03-13T15:42:43.858Z,99215.06
2023-03-13T15:45:10.642Z,99216.13
2023-03-13T15:47:37.307Z,99209.19
2023-03-13T15:50:04.377Z,99206.94
2023-03-13T15:52:31.301Z,99195.13
2023-03-13T15:54:58.002Z,99193.38
2023-03-13T15:57:26.497Z,99189.63
2023-03-13T15:59:53.643Z,99189.75
2023-03-13T16:02:24.283Z,99195.78
2023-03-13T16:04:51.611Z,99193.53
2023-03-13T16:07:20.744Z,99190.69
2023-03-13T16:09:48.056Z,99182.75
2023-03-13T16:12:14.808Z,99170.88
2023-03-13T16:14:41.596Z,99163.06
2023-03-13T16:17:18.948Z,99161.28
2023-03-13T16:19:46.719Z,99155.47
2023-03-13T16:22:14.482Z,99150.53
2023-03-13T16:24:41.373Z,99155.22
2023-03-13T16:27:16.445Z,99140.56
2023-03-13T16:29:43.982Z,99137.81
2023-03-13T16:32:16.031Z,99119.13
2023-03-13T16:34:43.152Z,99125.94
2023-03-13T16:37:13.758Z,99137.09
2023-03-13T16:39:40.533Z,99135.47
2023-03-13T16:42:07.707Z,99132.19
2023-03-13T16:44:34.290Z,99123.28
2023-03-13T16:47:05.965Z,99117.47
2023-03-13T16:49:33.026Z,99111.72
2023-03-13T16:51:59.568Z,99120.38
2023-03-13T16:54:26.133Z,99109.50
2023-03-13T16:56:52.720Z,99096.69
2023-03-13T16:59:19.752Z,99096.25
2023-03-13T17:01:47.234Z,99102.34
2023-03-13T17:04:13.994Z,99089.16
2023-03-13T17:06:42.548Z,99099.06
2023-03-13T17:09:14.496Z,99111.50
2023-03-13T17:11:41.856Z,99107.34
2023-03-13T17:14:08.557Z,99101.47
2023-03-13T17:16:36.944Z,99094.81
2023-03-13T17:19:04.085Z,99089.53
2023-03-13T17:21:32.124Z,99116.28
2023-03-13T17:24:02.130Z,99109.84
2023-03-13T17:26:33.071Z,99108.50
2023-03-13T17:29:00.551Z,99113.88
2023-03-13T17:31:28.164Z,99123.84
2023-03-13T17:33:54.808Z,99109.69
2023-03-13T17:36:27.292Z,99125.94
2023-03-13T17:39:01.437Z,99123.88
2023-03-13T17:41:30.001Z,99113.63
2023-03-13T17:43:56.912Z,99115.81
2023-03-13T17:46:26.021Z,99116.53
2023-03-13T17:48:53.850Z,99103.44
2023-03-13T17:51:22.592Z,99103.72
2023-03-13T17:53:49.658Z,99108.97
2023-03-13T17:56:27.599Z,99110.41
2023-03-13T17:58:57.857Z,99113.69
2023-03-13T18:01:26.714Z,99109.84
2023-03-13T18:03:53.705Z,99104.34
2023-03-13T18:06:50.546Z,99118.00
2023-03-13T18:09:20.802Z,99104.16
2023-03-13T18:11:48.387Z,99103.81
2023-03-13T18:14:15.075Z,99095.28
2023-03-13T18:16:48.005Z,99096.50
2023-03-13T18:19:25.122Z,99094.28
2023-03-13T18:21:54.200Z,99096.50
2023-03-13T18:24:21.594Z,99088.31
2023-03-13T18:26:49.389Z,99084.31
2023-03-13T18:29:26.445Z,99092.84
2023-03-13T18:31:58.998Z,99082.50
2023-03-13T18:34:25.919Z,99083.69
2023-03-13T18:36:53.033Z,99085.66
2023-03-13T18:39:20.301Z,99081.59
2023-03-13T18:41:48.427Z,99070.13
2023-03-13T18:44:16.295Z,99068.56
2023-03-13T18:46:43.676Z,99064.09
2023-03-13T18:49:13.320Z,99070.91
2023-03-13T18:51:40.010Z,99070.44
2023-03-13T18:54:06.584Z,99077.84
2023-03-13T18:56:33.201Z,99075.81
2023-03-13T18:59:01.617Z,99072.38
2023-03-13T19:01:30.025Z,99066.88
2023-03-13T19:03:59.422Z,99066.63
2023-03-13T19:06:36.845Z,99066.63
2023-03-13T19:09:40.957Z,99054.31
2023-03-13T19:12:02.103Z,99061.00
2023-03-13T19:14:28.777Z,99048.81
2023-03-13T19:16:57.629Z,99036.63
2023-03-13T19:19:26.351Z,99016.22
2023-03-13T19:21:56.279Z,99015.88
2023-03-13T19:24:26.602Z,99025.88
2023-03-13T19:26:59.017Z,99030.16
2023-03-13T19:29:27.732Z,99036.88
2023-03-13T19:31:59.231Z,99032.59
2023-03-13T19:34:25.902Z,99020.41
2023-03-13T19:36:53.475Z,99030.63
2023-03-13T19:39:25.297Z,99017.59
2023-03-13T19:41:52.938Z,99013.06
2023-03-13T19:44:20.182Z,99025.03
2023-03-13T19:46:47.142Z,99017.97
2023-03-13T19:49:16.646Z,99016.38
2023-03-13T19:51:43.646Z,99013.31
2023-03-13T19:54:10.846Z,99019.66
2023-03-13T19:56:39.389Z,99022.34
2023-03-13T19:59:28.166Z,99025.75
2023-03-13T20:01:57.686Z,99027.94
2023-03-13T20:04:25.193Z,99017.19
2023-03-13T20:06:51.852Z,99013.63
2023-03-13T20:09:20.262Z,99003.78
2023-03-13T20:11:46.897Z,99005.63
2023-03-13T20:14:13.546Z,99009.50
2023-03-13T20:16:40.155Z,99001.34
2023-03-13T20:19:06.849Z,99001.91
2023-03-13T20:21:35.648Z,98993.34
2023-03-13T20:24:02.515Z,98988.88
2023-03-13T20:26:29.498Z,98994.38
2023-03-13T20:28:57.090Z,98985.97
2023-03-13T20:31:29.474Z,98987.09
2023-03-13T20:33:57.035Z,98985.97
2023-03-13T20:36:24.249Z,98980.88
2023-03-13T20:38:50.883Z,98963.91
2023-03-13T20:41:19.266Z,98976.56
2023-03-13T20:43:45.833Z,98975.84
2023-03-13T20:46:12.557Z,98973.66
2023-03-13T20:48:39.828Z,98974.00
2023-03-13T20:51:07.904Z,98987.16
2023-03-13T20:53:39.388Z,98995.47
2023-03-13T20:56:08.071Z,98999.38
2023-03-13T20:58:35.558Z,98988.63
2023-03-13T21:01:03.717Z,98979.47
2023-03-13T21:03:35.166Z,98995.69
2023-03-13T21:06:12.926Z,98991.19
2023-03-13T21:08:39.779Z,98999.22
2023-03-13T21:11:14.426Z,98988.47
2023-03-13T21:13:41.193Z,98997.03
2023-03-13T21:16:08.277Z,98995.81
2023-03-13T21:18:35.105Z,98990.44
2023-03-13T21:21:06.147Z,98985.59
2023-03-13T21:23:32.926Z,98991.47
2023-03-13T21:26:00.676Z,98992.41
2023-03-13T21:28:28.278Z,98997.66
2023-03-13T21:30:55.909Z,99002.91
2023-03-13T21:33:22.882Z,99003.97
2023-03-13T21:35:50.218Z,99016.34
2023-03-13T21:38:17.716Z,99019.63
2023-03-13T21:40:44.458Z,98993.88
2023-03-13T21:43:11.042Z,99002.00
2023-03-13T21:45:37.746Z,98990.44
2023-03-13T21:48:04.436Z,98990.88
2023-03-13T21:50:32.716Z,98987.56
2023-03-13T21:52:59.351Z,98982.03
2023-03-13T21:55:25.964Z,98975.22
2023-03-13T21:57:52.596Z,98957.81
2023-03-13T22:00:19.337Z,98970.69
2023-03-13T22:02:46.003Z,98968.88
2023-03-13T22:05:12.677Z,98957.78
2023-03-13T22:07:39.282Z,98962.66
2023-03-13T22:10:06.190Z,98962.91
2023-03-13T22:12:32.742Z,98968.53
2023-03-13T22:14:59.493Z,98977.41
2023-03-13T22:17:26.054Z,98977.81
2023-03-13T22:19:52.613Z,98975.31
2023-03-13T22:22:21.989Z,98967.09
2023-03-13T22:24:48.863Z,98958.53
2023-03-13T22:27:15.696Z,98956.06
2023-03-13T22:29:42.242Z,98949.88
2023-03-13T22:32:09.707Z,98941.75
2023-03-13T22:34:36.388Z,98951.84
2023-03-13T22:37:03.071Z,98958.88
2023-03-13T22:39:29.661Z,98960.06
2023-03-13T22:41:56.438Z,98944.75
2023-03-13T22:44:22.985Z,98941.00
2023-03-13T22:46:49.801Z,98947.94
2023-03-13T22:49:16.393Z,98948.16
2023-03-13T22:51:42.962Z,98936.34
2023-03-13T22:54:09.519Z,98922.78
2023-03-13T22:56:36.286Z,98948.34
2023-03-13T22:59:03.689Z,98952.31
2023-03-13T23:01:30.408Z,98933.03
2023-03-13T23:03:57.018Z,98920.72
2023-03-13T23:06:25.385Z,98936.47
2023-03-13T23:08:52.539Z,98950.19
2023-03-13T23:11:19.649Z,98951.25
2023-03-13T23:13:46.301Z,98945.16
2023-03-13T23:16:13.213Z,98935.53
2023-03-13T23:18:41.384Z,98926.00
2023-03-13T23:21:10.855Z,98920.34
2023-03-13T23:23:37.612Z,98917.69
2023-03-13T23:26:06.157Z,98908.66
2023-03-13T23:28:34.213Z,98913.00
2023-03-13T23:31:03.083Z,98898.16
2023-03-13T23:33:29.796Z,98908.88
2023-03-13T23:35:56.401Z,98916.53
2023-03-13T23:38:25.417Z,98914.69
2023-03-13T23:40:53.233Z,98906.56
2023-03-13T23:43:19.787Z,98895.25
2023-03-13T23:45:46.355Z,98901.56
2023-03-13T23:48:12.997Z,98905.25
2023-03-13T23:50:39.628Z,98911.03
2023-03-13T23:53:06.198Z,98907.00
2023-03-13T23:55:32.793Z,98919.56
2023-03-13T23:57:59.560Z,98920.97
